createdAt,value
2019-03-06T00:02:46.715Z,99766.55
2019-03-06T00:05:48.709Z,99765.97
2019-03-06T00:08:50.677Z,99773.29
2019-03-06T00:11:52.796Z,99773.53
2019-03-06T00:14:54.798Z,99773.48
2019-03-06T00:17:56.725Z,99776.69
2019-03-06T00:20:58.673Z,99788.36
2019-03-06T00:24:00.711Z,99785.55
2019-03-06T00:27:02.750Z,99789.80
2019-03-06T00:30:08.337Z,99788.23
2019-03-06T00:33:10.399Z,99793.33
2019-03-06T00:36:14.186Z,99793.23
2019-03-06T00:39:16.190Z,99788.37
2019-03-06T00:42:18.332Z,99796.23
2019-03-06T00:45:20.271Z,99790.86
2019-03-06T00:48:22.219Z,99794.45
2019-03-06T00:51:24.137Z,99801.91
2019-03-06T00:54:26.136Z,99804.55
2019-03-06T00:57:28.048Z,99800.81
2019-03-06T01:00:30.033Z,99805.05
2019-03-06T01:03:31.947Z,99803.63
2019-03-06T01:06:34.088Z,99808.42
2019-03-06T01:09:36.029Z,99803.08
2019-03-06T01:12:38.658Z,99803.03
2019-03-06T01:15:40.602Z,99799.77
2019-03-06T01:18:42.550Z,99802.87
2019-03-06T01:21:44.835Z,99811.69
2019-03-06T01:24:46.796Z,99819.41
2019-03-06T01:27:48.753Z,99822.73
2019-03-06T01:30:50.694Z,99820.11
2019-03-06T01:33:54.487Z,99822.70
2019-03-06T01:36:58.209Z,99818.14
2019-03-06T01:40:01.998Z,99825.61
2019-03-06T01:43:11.510Z,99828.47
2019-03-06T01:46:13.969Z,99834.13
2019-03-06T01:49:15.968Z,99841.06
2019-03-06T01:52:17.975Z,99830.84
2019-03-06T01:55:19.975Z,99844.12
2019-03-06T01:58:21.989Z,99835.80
2019-03-06T02:01:23.975Z,99830.79
2019-03-06T02:04:26.535Z,99838.66
2019-03-06T02:07:28.429Z,99848.78
2019-03-06T02:10:31.469Z,99855.23
2019-03-06T02:13:33.391Z,99859.99
2019-03-06T02:16:35.349Z,99862.55
2019-03-06T02:19:37.341Z,99872.98
2019-03-06T02:22:39.604Z,99864.93
2019-03-06T02:25:41.585Z,99870.77
2019-03-06T02:28:43.506Z,99871.30
2019-03-06T02:31:45.511Z,99882.55
2019-03-06T02:34:47.444Z,99886.09
2019-03-06T02:37:49.400Z,99887.22
2019-03-06T02:40:51.317Z,99893.47
2019-03-06T02:43:53.316Z,99893.94
2019-03-06T02:46:57.394Z,99889.58
2019-03-06T02:49:59.348Z,99895.77
2019-03-06T02:53:01.277Z,99901.40
2019-03-06T02:56:03.293Z,99905.33
2019-03-06T02:59:07.150Z,99906.22
2019-03-06T03:02:11.059Z,99908.25
2019-03-06T03:05:17.586Z,99916.70
2019-03-06T03:08:19.550Z,99916.10
2019-03-06T03:11:21.585Z,99922.46
2019-03-06T03:14:23.511Z,99927.45
2019-03-06T03:17:25.410Z,99927.06
2019-03-06T03:20:27.339Z,99933.09
2019-03-06T03:23:29.399Z,99930.98
2019-03-06T03:26:31.304Z,99935.13
2019-03-06T03:29:33.310Z,99939.95
2019-03-06T03:32:35.267Z,99944.02
2019-03-06T03:35:37.223Z,99945.59
2019-03-06T03:38:39.177Z,99950.05
2019-03-06T03:41:41.216Z,99949.78
2019-03-06T03:44:43.210Z,99948.56
2019-03-06T03:47:45.269Z,99943.31
2019-03-06T03:50:47.816Z,99953.72
2019-03-06T03:53:49.773Z,99955.91
2019-03-06T03:56:51.845Z,99967.67
2019-03-06T03:59:55.784Z,99968.05
2019-03-06T04:02:58.083Z,99972.11
2019-03-06T04:06:00.105Z,99973.59
2019-03-06T04:09:02.521Z,99977.38
2019-03-06T04:12:06.333Z,99978.65
2019-03-06T04:15:11.691Z,99978.86
2019-03-06T04:18:13.873Z,99974.80
2019-03-06T04:21:15.830Z,99988.66
2019-03-06T04:24:17.828Z,99991.50
2019-03-06T04:27:19.797Z,99988.95
2019-03-06T04:30:21.800Z,99989.62
2019-03-06T04:33:23.794Z,99997.37
2019-03-06T04:36:25.764Z,99994.13
2019-03-06T04:39:27.690Z,100003.23
2019-03-06T04:42:29.619Z,100002.17
2019-03-06T04:45:31.552Z,99999.98
2019-03-06T04:48:33.565Z,100001.88
2019-03-06T04:51:35.544Z,100002.91
2019-03-06T04:54:37.542Z,100009.39
2019-03-06T04:57:39.557Z,100015.86
2019-03-06T05:00:41.509Z,100016.45
2019-03-06T05:03:43.503Z,100019.16
2019-03-06T05:06:45.452Z,100022.19
2019-03-06T05:09:47.407Z,100024.20
2019-03-06T05:12:49.301Z,100032.77
2019-03-06T05:15:51.429Z,100033.75
2019-03-06T05:18:55.229Z,100029.27
2019-03-06T05:21:57.197Z,100027.63
2019-03-06T05:24:59.220Z,100031.60
2019-03-06T05:28:01.117Z,100031.16
2019-03-06T05:31:03.035Z,100039.45
2019-03-06T05:34:05.051Z,100032.16
2019-03-06T05:37:41.478Z,100035.56
2019-03-06T05:40:43.515Z,100039.55
2019-03-06T05:43:45.461Z,100045.52
2019-03-06T05:46:47.423Z,100050.37
2019-03-06T05:49:49.468Z,100050.09
2019-03-06T05:52:51.380Z,100055.30
2019-03-06T05:55:53.336Z,100054.31
2019-03-06T05:58:55.405Z,100060.16
2019-03-06T06:01:57.328Z,100057.42
2019-03-06T06:04:59.407Z,100049.76
2019-03-06T06:08:01.415Z,100058.95
2019-03-06T06:11:03.608Z,100051.38
2019-03-06T06:14:05.567Z,100054.98
2019-03-06T06:17:07.537Z,100048.92
2019-03-06T06:20:11.697Z,100057.70
2019-03-06T06:23:31.829Z,100063.25
2019-03-06T06:26:33.876Z,100065.13
2019-03-06T06:29:35.873Z,100070.28
2019-03-06T06:32:37.866Z,100069.87
2019-03-06T06:35:39.842Z,100066.88
2019-03-06T06:38:43.077Z,100073.20
2019-03-06T06:41:45.209Z,100070.63
2019-03-06T06:44:47.174Z,100070.63
2019-03-06T06:48:11.686Z,100065.67
2019-03-06T06:51:27.122Z,100081.47
2019-03-06T06:54:50.210Z,100082.91
2019-03-06T06:58:14.242Z,100081.31
2019-03-06T07:01:27.492Z,100082.98
2019-03-06T07:04:46.733Z,100091.75
2019-03-06T07:07:56.351Z,100094.52
2019-03-06T07:11:00.197Z,100096.70
2019-03-06T07:14:07.001Z,100099.45
2019-03-06T07:17:10.837Z,100103.55
2019-03-06T07:20:14.763Z,100099.98
2019-03-06T07:23:18.605Z,100096.88
2019-03-06T07:26:31.347Z,100102.61
2019-03-06T07:29:38.951Z,100095.92
2019-03-06T07:32:45.877Z,100106.28
2019-03-06T07:36:10.625Z,100091.09
2019-03-06T07:39:19.633Z,100103.37
2019-03-06T07:42:32.531Z,100115.92
2019-03-06T07:45:51.358Z,100119.92
2019-03-06T07:48:55.616Z,100125.37
2019-03-06T07:52:09.537Z,100122.73
2019-03-06T07:55:22.136Z,100130.92
2019-03-06T07:58:47.671Z,100127.09
2019-03-06T08:01:53.413Z,100128.44
2019-03-06T08:04:55.404Z,100133.02
2019-03-06T08:07:57.328Z,100127.92
2019-03-06T08:11:00.595Z,100115.92
2019-03-06T08:14:07.329Z,100121.41
2019-03-06T08:17:27.862Z,100114.97
2019-03-06T08:20:48.494Z,100117.50
2019-03-06T08:23:55.123Z,100123.04
2019-03-06T08:26:57.124Z,100122.55
2019-03-06T08:29:59.100Z,100135.12
2019-03-06T08:33:00.998Z,100125.88
2019-03-06T08:36:03.090Z,100127.35
2019-03-06T08:39:16.957Z,100128.61
2019-03-06T08:42:19.463Z,100135.84
2019-03-06T08:45:23.200Z,100132.87
2019-03-06T08:48:29.974Z,100126.33
2019-03-06T08:51:33.750Z,100129.97
2019-03-06T08:54:40.890Z,100129.69
2019-03-06T08:58:00.982Z,100126.96
2019-03-06T09:01:35.376Z,100131.11
2019-03-06T09:04:43.038Z,100124.83
2019-03-06T09:07:47.105Z,100120.25
2019-03-06T09:10:51.935Z,100124.97
2019-03-06T09:14:07.831Z,100131.59
2019-03-06T09:17:26.860Z,100124.13
2019-03-06T09:20:47.164Z,100126.88
2019-03-06T09:23:50.921Z,100120.83
2019-03-06T09:26:54.997Z,100113.45
2019-03-06T09:30:01.798Z,100116.43
2019-03-06T09:33:22.121Z,100119.45
2019-03-06T09:36:32.238Z,100123.08
2019-03-06T09:39:54.595Z,100118.41
2019-03-06T09:43:04.015Z,100114.27
2019-03-06T09:46:16.926Z,100116.20
2019-03-06T09:49:26.808Z,100117.59
2019-03-06T09:52:39.609Z,100112.38
2019-03-06T09:55:46.372Z,100112.69
2019-03-06T09:58:53.607Z,100106.92
2019-03-06T10:02:06.859Z,100104.17
2019-03-06T10:05:18.155Z,100107.18
2019-03-06T10:08:27.774Z,100109.93
2019-03-06T10:11:31.619Z,100101.92
2019-03-06T10:14:47.443Z,100104.66
2019-03-06T10:17:51.304Z,100102.41
2019-03-06T10:20:53.323Z,100094.70
2019-03-06T10:23:55.339Z,100094.72
2019-03-06T10:26:57.474Z,100090.09
2019-03-06T10:29:59.849Z,100092.83
2019-03-06T10:33:01.791Z,100085.09
2019-03-06T10:36:03.717Z,100076.81
2019-03-06T10:39:06.013Z,100080.38
2019-03-06T10:42:09.796Z,100069.94
2019-03-06T10:48:27.794Z,100062.21
2019-03-06T10:51:31.078Z,100061.94
2019-03-06T10:54:33.379Z,100057.77
2019-03-06T10:57:35.992Z,100044.00
2019-03-06T11:00:50.615Z,100045.63
2019-03-06T11:03:54.433Z,100038.73
2019-03-06T11:06:56.544Z,100048.11
2019-03-06T11:09:58.911Z,100041.23
2019-03-06T11:13:02.972Z,100042.81
2019-03-06T11:16:07.145Z,100042.00
2019-03-06T11:19:09.325Z,100039.51
2019-03-06T11:22:11.846Z,100028.53
2019-03-06T11:25:16.671Z,100028.50
2019-03-06T11:28:18.851Z,100023.80
2019-03-06T11:31:20.893Z,100026.66
2019-03-06T11:34:22.876Z,100030.27
2019-03-06T11:37:25.808Z,100035.42
2019-03-06T11:40:28.096Z,100026.84
2019-03-06T11:43:33.259Z,100023.24
2019-03-06T11:46:35.473Z,100007.27
2019-03-06T11:49:37.389Z,100006.14
2019-03-06T11:52:39.409Z,100007.48
2019-03-06T11:55:41.570Z,99997.62
2019-03-06T11:58:43.711Z,99985.78
2019-03-06T12:01:48.295Z,99989.06
2019-03-06T12:04:50.584Z,99991.52
2019-03-06T12:07:52.586Z,99990.19
2019-03-06T12:10:55.066Z,99975.36
2019-03-06T12:13:57.344Z,99973.91
2019-03-06T12:16:59.686Z,99971.23
2019-03-06T12:20:08.299Z,99966.52
2019-03-06T12:23:07.158Z,99952.77
2019-03-06T12:26:09.231Z,99941.08
2019-03-06T12:29:11.148Z,99940.36
2019-03-06T12:32:13.308Z,99951.04
2019-03-06T12:35:16.681Z,99937.81
2019-03-06T12:38:20.135Z,99936.36
2019-03-06T12:41:23.231Z,99936.18
2019-03-06T12:44:25.247Z,99926.89
2019-03-06T12:47:27.477Z,99923.61
2019-03-06T12:50:39.492Z,99920.59
2019-03-06T12:53:41.514Z,99913.69
2019-03-06T12:56:43.595Z,99912.88
2019-03-06T12:59:45.567Z,99902.11
2019-03-06T13:02:47.947Z,99886.44
2019-03-06T13:05:49.850Z,99890.62
2019-03-06T13:08:51.883Z,99877.24
2019-03-06T13:11:53.820Z,99877.83
2019-03-06T13:14:56.301Z,99864.86
2019-03-06T13:17:58.365Z,99858.48
2019-03-06T13:21:00.366Z,99853.20
2019-03-06T13:24:02.545Z,99845.23
2019-03-06T13:27:05.951Z,99833.41
2019-03-06T13:30:11.299Z,99825.73
2019-03-06T13:33:31.820Z,99812.31
2019-03-06T13:36:33.750Z,99808.88
2019-03-06T13:39:35.771Z,99804.50
2019-03-06T13:42:37.732Z,99792.96
2019-03-06T13:45:39.946Z,99792.09
2019-03-06T13:48:41.920Z,99791.00
2019-03-06T13:51:43.912Z,99782.52
2019-03-06T13:54:46.214Z,99780.33
2019-03-06T13:57:48.373Z,99773.45
2019-03-06T14:00:50.721Z,99769.68
2019-03-06T14:03:53.252Z,99780.34
2019-03-06T14:06:55.251Z,99776.22
2019-03-06T14:09:57.479Z,99768.53
2019-03-06T14:12:59.453Z,99770.41
2019-03-06T14:16:01.511Z,99770.10
2019-03-06T14:19:03.565Z,99766.82
2019-03-06T14:22:05.574Z,99769.29
2019-03-06T14:25:09.586Z,99756.13
2019-03-06T14:28:12.033Z,99754.94
2019-03-06T14:31:15.484Z,99756.85
2019-03-06T14:34:17.526Z,99748.59
2019-03-06T14:37:19.614Z,99733.13
2019-03-06T14:40:30.811Z,99726.25
2019-03-06T14:43:32.883Z,99731.75
2019-03-06T14:46:34.780Z,99723.84
2019-03-06T14:49:36.716Z,99711.14
2019-03-06T14:52:38.648Z,99711.34
2019-03-06T14:55:40.776Z,99706.24
2019-03-06T14:58:42.732Z,99702.42
2019-03-06T15:01:44.682Z,99698.91
2019-03-06T15:04:46.691Z,99691.87
2019-03-06T15:07:48.672Z,99689.96
2019-03-06T15:10:50.993Z,99693.24
2019-03-06T15:13:53.936Z,99694.67
2019-03-06T15:16:55.875Z,99688.67
2019-03-06T15:19:58.086Z,99695.52
2019-03-06T15:23:00.058Z,99687.57
2019-03-06T15:26:02.099Z,99682.41
2019-03-06T15:29:04.209Z,99682.46
2019-03-06T15:32:06.298Z,99680.83
2019-03-06T15:35:10.600Z,99679.45
2019-03-06T15:38:13.015Z,99678.16
2019-03-06T15:41:15.066Z,99680.19
2019-03-06T15:44:17.313Z,99670.13
2019-03-06T15:47:19.757Z,99654.02
2019-03-06T15:50:21.901Z,99654.09
2019-03-06T15:53:25.018Z,99651.97
2019-03-06T15:56:27.783Z,99650.64
2019-03-06T15:59:29.736Z,99639.44
2019-03-06T16:02:31.844Z,99635.91
2019-03-06T16:05:34.970Z,99639.55
2019-03-06T16:08:36.900Z,99637.12
2019-03-06T16:11:39.315Z,99634.23
2019-03-06T16:14:41.304Z,99627.44
2019-03-06T16:17:43.430Z,99629.43
2019-03-06T16:20:46.022Z,99623.76
2019-03-06T16:23:48.164Z,99613.13
2019-03-06T16:26:50.929Z,99610.72
2019-03-06T16:29:52.894Z,99609.69
2019-03-06T16:32:54.961Z,99600.96
2019-03-06T16:35:57.055Z,99602.11
2019-03-06T16:38:59.253Z,99603.55
2019-03-06T16:42:01.158Z,99599.77
2019-03-06T16:45:05.215Z,99593.25
2019-03-06T16:48:07.282Z,99597.44
2019-03-06T16:51:09.683Z,99584.54
2019-03-06T16:54:11.844Z,99584.83
2019-03-06T16:57:14.202Z,99579.36
2019-03-06T17:00:29.346Z,99579.36
2019-03-06T17:03:32.219Z,99576.37
2019-03-06T17:06:34.211Z,99573.92
2019-03-06T17:09:36.723Z,99579.69
2019-03-06T17:12:38.855Z,99582.13
2019-03-06T17:15:40.839Z,99580.23
2019-03-06T17:18:44.220Z,99583.78
2019-03-06T17:21:46.251Z,99579.13
2019-03-06T17:24:48.254Z,99562.73
2019-03-06T17:27:50.522Z,99558.87
2019-03-06T17:30:52.464Z,99556.69
2019-03-06T17:33:54.414Z,99553.44
2019-03-06T17:36:57.460Z,99562.17
2019-03-06T17:39:59.652Z,99553.16
2019-03-06T17:43:01.854Z,99550.13
2019-03-06T17:46:06.569Z,99539.73
2019-03-06T17:49:10.763Z,99533.73
2019-03-06T17:52:12.664Z,99524.42
2019-03-06T17:55:17.355Z,99514.84
2019-03-06T17:58:20.629Z,99508.84
2019-03-06T18:01:22.702Z,99508.27
2019-03-06T18:04:24.633Z,99504.17
2019-03-06T18:07:26.579Z,99506.66
2019-03-06T18:10:28.831Z,99496.28
2019-03-06T18:13:32.070Z,99495.17
2019-03-06T18:16:34.066Z,99488.63
2019-03-06T18:19:37.955Z,99487.27
2019-03-06T18:22:43.516Z,99482.59
2019-03-06T18:25:46.251Z,99474.13
2019-03-06T18:28:48.306Z,99472.19
2019-03-06T18:31:50.283Z,99465.64
2019-03-06T18:34:52.603Z,99462.34
2019-03-06T18:37:55.902Z,99457.41
2019-03-06T18:40:58.439Z,99455.23
2019-03-06T18:44:03.120Z,99451.13
2019-03-06T18:47:07.518Z,99448.41
2019-03-06T18:50:12.320Z,99453.86
2019-03-06T18:53:16.365Z,99455.49
2019-03-06T18:56:22.248Z,99448.11
2019-03-06T18:59:24.727Z,99447.04
2019-03-06T19:02:26.783Z,99440.73
2019-03-06T19:05:28.752Z,99439.38
2019-03-06T19:08:31.616Z,99433.91
2019-03-06T19:11:35.558Z,99422.17
2019-03-06T19:14:39.901Z,99424.60
2019-03-06T19:17:42.322Z,99409.61
2019-03-06T19:20:44.421Z,99414.50
2019-03-06T19:23:48.209Z,99407.08
2019-03-06T19:26:52.846Z,99410.84
2019-03-06T19:29:57.326Z,99407.77
2019-03-06T19:32:59.676Z,99402.80
2019-03-06T19:36:02.948Z,99399.72
2019-03-06T19:39:06.678Z,99401.55
2019-03-06T19:42:10.214Z,99383.78
2019-03-06T19:45:14.889Z,99379.95
2019-03-06T19:48:17.790Z,99373.10
2019-03-06T19:51:22.564Z,99363.83
2019-03-06T19:54:27.322Z,99367.86
2019-03-06T19:57:33.078Z,99363.75
2019-03-06T20:00:37.066Z,99358.03
2019-03-06T20:03:39.892Z,99351.73
2019-03-06T20:06:42.478Z,99348.19
2019-03-06T20:09:47.527Z,99346.83
2019-03-06T20:12:49.668Z,99350.05
2019-03-06T20:15:52.171Z,99345.43
2019-03-06T20:18:54.674Z,99343.75
2019-03-06T20:21:56.772Z,99341.84
2019-03-06T20:25:00.320Z,99340.17
2019-03-06T20:28:02.630Z,99337.95
2019-03-06T20:31:05.319Z,99330.33
2019-03-06T20:34:10.643Z,99336.55
2019-03-06T20:37:12.736Z,99328.09
2019-03-06T20:40:14.799Z,99331.06
2019-03-06T20:43:17.185Z,99332.16
2019-03-06T20:46:22.212Z,99330.25
2019-03-06T20:49:23.948Z,99328.34
2019-03-06T20:52:27.154Z,99324.00
2019-03-06T20:55:31.512Z,99312.63
2019-03-06T20:58:37.448Z,99309.42
2019-03-06T21:01:40.096Z,99310.56
2019-03-06T21:04:42.155Z,99300.27
2019-03-06T21:07:45.127Z,99304.66
2019-03-06T21:10:48.123Z,99301.41
2019-03-06T21:13:51.609Z,99303.06
2019-03-06T21:16:55.045Z,99287.75
2019-03-06T21:20:00.397Z,99288.03
2019-03-06T21:23:02.414Z,99276.84
2019-03-06T21:26:05.376Z,99273.28
2019-03-06T21:29:07.462Z,99270.80
2019-03-06T21:32:09.458Z,99259.34
2019-03-06T21:35:12.788Z,99255.02
2019-03-06T21:38:14.883Z,99250.61
2019-03-06T21:41:17.369Z,99243.23
2019-03-06T21:44:19.419Z,99247.59
2019-03-06T21:47:24.333Z,99242.12
2019-03-06T21:50:28.065Z,99233.11
2019-03-06T21:53:30.064Z,99234.73
2019-03-06T21:56:32.029Z,99229.32
2019-03-06T21:59:34.064Z,99233.67
2019-03-06T22:02:36.166Z,99233.94
2019-03-06T22:05:38.157Z,99233.92
2019-03-06T22:08:40.365Z,99233.63
2019-03-06T22:11:43.536Z,99224.59
2019-03-06T22:14:45.502Z,99221.31
2019-03-06T22:17:47.952Z,99215.59
2019-03-06T22:20:49.851Z,99207.16
2019-03-06T22:23:51.833Z,99208.28
2019-03-06T22:26:53.787Z,99204.45
2019-03-06T22:29:55.793Z,99203.66
2019-03-06T22:32:59.585Z,99202.03
2019-03-06T22:36:01.736Z,99194.14
2019-03-06T22:39:05.038Z,99189.21
2019-03-06T22:42:08.986Z,99180.22
2019-03-06T22:45:13.487Z,99174.78
2019-03-06T22:48:15.430Z,99170.41
2019-03-06T22:51:17.426Z,99173.96
2019-03-06T22:54:19.402Z,99163.39
2019-03-06T22:57:21.330Z,99161.20
2019-03-06T23:00:29.760Z,99160.13
2019-03-06T23:03:33.628Z,99157.13
2019-03-06T23:06:35.829Z,99154.72
2019-03-06T23:09:37.714Z,99156.11
2019-03-06T23:12:39.665Z,99150.11
2019-03-06T23:15:41.597Z,99145.23
2019-03-06T23:18:43.792Z,99140.02
2019-03-06T23:21:45.718Z,99151.44
2019-03-06T23:24:48.757Z,99134.28
2019-03-06T23:27:51.113Z,99133.13
2019-03-06T23:30:53.093Z,99129.80
2019-03-06T23:33:55.120Z,99122.94
2019-03-06T23:36:57.151Z,99118.25
2019-03-06T23:39:59.050Z,99121.45
2019-03-06T23:43:01.107Z,99116.02
2019-03-06T23:46:03.029Z,99111.96
2019-03-06T23:49:05.035Z,99104.66
2019-03-06T23:52:08.760Z,99097.06
2019-03-06T23:55:12.434Z,99078.58
2019-03-06T23:58:14.354Z,99084.00
